createdAt,value
2017-11-20T00:02:12.365Z,4.90
2017-11-20T00:04:39.915Z,4.90
2017-11-20T00:07:07.475Z,4.90
2017-11-20T00:09:35.040Z,4.90
2017-11-20T00:12:02.587Z,4.80
2017-11-20T00:14:30.163Z,4.80
2017-11-20T00:16:57.925Z,4.80
2017-11-20T00:19:25.499Z,4.80
2017-11-20T00:21:53.054Z,4.80
2017-11-20T00:24:20.644Z,4.80
2017-11-20T00:26:48.204Z,4.70
2017-11-20T00:29:15.878Z,4.70
2017-11-20T00:31:44.220Z,4.70
2017-11-20T00:34:11.819Z,4.70
2017-11-20T00:36:40.161Z,4.70
2017-11-20T00:39:07.753Z,4.70
2017-11-20T00:41:35.315Z,4.70
2017-11-20T00:44:02.867Z,4.70
2017-11-20T00:46:30.465Z,4.60
2017-11-20T00:48:58.799Z,4.60
2017-11-20T00:51:26.348Z,4.60
2017-11-20T00:53:53.932Z,4.70
2017-11-20T00:56:21.483Z,4.70
2017-11-20T00:58:49.051Z,4.70
2017-11-20T01:01:16.782Z,4.70
2017-11-20T01:03:44.332Z,4.70
2017-11-20T01:06:12.678Z,4.80
2017-11-20T01:08:40.237Z,4.80
2017-11-20T01:11:07.820Z,4.80
2017-11-20T01:13:35.386Z,4.80
2017-11-20T01:16:03.740Z,4.90
2017-11-20T01:18:31.342Z,4.90
2017-11-20T01:20:58.955Z,5.00
2017-11-20T01:23:26.582Z,5.00
2017-11-20T01:25:54.151Z,5.00
2017-11-20T01:28:21.693Z,5.00
2017-11-20T01:30:49.252Z,5.00
2017-11-20T01:33:17.581Z,5.10
2017-11-20T01:35:45.230Z,5.00
2017-11-20T01:38:12.759Z,5.10
2017-11-20T01:40:40.388Z,5.00
2017-11-20T01:43:07.952Z,5.00
2017-11-20T01:45:36.265Z,5.10
2017-11-20T01:48:03.831Z,5.10
2017-11-20T01:50:31.383Z,5.00
2017-11-20T01:52:58.974Z,5.00
2017-11-20T01:55:26.510Z,5.00
2017-11-20T01:57:54.111Z,5.00
2017-11-20T02:00:21.646Z,5.00
2017-11-20T02:03:00.150Z,5.00
2017-11-20T02:05:27.704Z,5.00
2017-11-20T02:07:56.048Z,5.00
2017-11-20T02:10:23.622Z,5.00
2017-11-20T02:12:51.212Z,5.00
2017-11-20T02:15:19.534Z,5.00
2017-11-20T02:17:47.087Z,5.00
2017-11-20T02:20:14.620Z,5.00
2017-11-20T02:22:42.177Z,5.00
2017-11-20T02:25:09.746Z,5.00
2017-11-20T02:27:37.409Z,5.00
2017-11-20T02:30:05.015Z,5.00
2017-11-20T02:32:32.584Z,5.00
2017-11-20T02:35:00.126Z,5.00
2017-11-20T02:37:27.712Z,4.90
2017-11-20T02:39:55.264Z,4.90
2017-11-20T02:42:22.828Z,4.90
2017-11-20T02:44:50.400Z,4.80
2017-11-20T02:47:17.949Z,4.80
2017-11-20T02:49:45.502Z,4.80
2017-11-20T02:52:13.123Z,4.70
2017-11-20T02:54:43.010Z,4.70
2017-11-20T02:57:10.587Z,4.70
2017-11-20T02:59:38.196Z,4.60
2017-11-20T03:02:05.770Z,4.60
2017-11-20T03:04:34.270Z,4.60
2017-11-20T03:07:01.843Z,4.60
2017-11-20T03:09:29.407Z,4.60
2017-11-20T03:11:56.982Z,4.50
2017-11-20T03:14:24.579Z,4.50
2017-11-20T03:16:52.244Z,4.40
2017-11-20T03:19:19.847Z,4.40
2017-11-20T03:21:47.415Z,4.40
2017-11-20T03:24:14.984Z,4.30
2017-11-20T03:26:42.554Z,4.30
2017-11-20T03:29:10.092Z,4.30
2017-11-20T03:31:37.674Z,4.20
2017-11-20T03:34:05.335Z,4.20
2017-11-20T03:36:32.944Z,4.10
2017-11-20T03:39:00.561Z,4.00
2017-11-20T03:41:28.105Z,4.00
2017-11-20T03:43:55.654Z,4.00
2017-11-20T03:46:23.973Z,4.10
2017-11-20T03:48:51.536Z,4.10
2017-11-20T03:51:19.111Z,4.10
2017-11-20T03:53:46.679Z,4.10
2017-11-20T03:56:14.247Z,4.10
2017-11-20T03:58:41.814Z,4.10
2017-11-20T04:01:09.369Z,4.10
2017-11-20T04:03:36.915Z,4.20
2017-11-20T04:06:04.483Z,4.10
2017-11-20T04:08:32.081Z,4.10
2017-11-20T04:11:00.411Z,4.00
2017-11-20T04:13:27.975Z,3.90
2017-11-20T04:15:55.532Z,4.00
2017-11-20T04:18:23.096Z,4.00
2017-11-20T04:20:50.641Z,4.10
2017-11-20T04:23:18.221Z,4.20
2017-11-20T04:25:45.795Z,4.20
2017-11-20T04:28:13.362Z,4.20
2017-11-20T04:30:41.512Z,4.20
2017-11-20T04:33:09.069Z,4.20
2017-11-20T04:35:36.641Z,4.20
2017-11-20T04:38:04.212Z,4.20
2017-11-20T04:40:31.799Z,4.30
2017-11-20T04:42:59.357Z,4.30
2017-11-20T04:45:26.994Z,4.30
2017-11-20T04:47:54.552Z,4.30
2017-11-20T04:50:22.095Z,4.30
2017-11-20T04:52:49.651Z,4.30
2017-11-20T04:55:17.203Z,4.30
2017-11-20T04:57:44.855Z,4.20
2017-11-20T05:00:13.186Z,4.20
2017-11-20T05:02:40.874Z,4.20
2017-11-20T05:05:08.431Z,4.30
2017-11-20T05:07:35.956Z,4.30
2017-11-20T05:10:03.521Z,4.30
2017-11-20T05:12:31.099Z,4.30
2017-11-20T05:14:58.664Z,4.30
2017-11-20T05:17:26.332Z,4.30
2017-11-20T05:19:53.937Z,4.20
2017-11-20T05:22:21.519Z,4.10
2017-11-20T05:24:49.081Z,4.10
2017-11-20T05:27:16.673Z,4.10
2017-11-20T05:29:44.347Z,4.10
2017-11-20T05:32:11.987Z,4.10
2017-11-20T05:34:39.552Z,4.00
2017-11-20T05:37:07.130Z,3.90
2017-11-20T05:39:34.725Z,3.90
2017-11-20T05:42:03.091Z,3.90
2017-11-20T05:44:30.634Z,3.80
2017-11-20T05:46:58.182Z,3.90
2017-11-20T05:49:25.795Z,3.90
2017-11-20T05:51:53.458Z,3.80
2017-11-20T05:54:21.776Z,3.70
2017-11-20T05:56:49.375Z,3.70
2017-11-20T05:59:16.927Z,3.80
2017-11-20T06:01:44.480Z,3.80
2017-11-20T06:04:12.091Z,3.90
2017-11-20T06:06:39.740Z,3.90
2017-11-20T06:09:08.075Z,4.00
2017-11-20T06:11:35.642Z,4.00
2017-11-20T06:14:03.211Z,4.10
2017-11-20T06:16:30.793Z,4.10
2017-11-20T06:18:58.376Z,4.20
2017-11-20T06:21:26.695Z,4.20
2017-11-20T06:23:54.339Z,4.20
2017-11-20T06:26:21.935Z,4.20
2017-11-20T06:28:49.481Z,4.20
2017-11-20T06:31:17.037Z,4.20
2017-11-20T06:33:44.696Z,4.30
2017-11-20T06:36:12.402Z,4.30
2017-11-20T06:38:39.988Z,4.30
2017-11-20T06:41:08.302Z,4.30
2017-11-20T06:43:35.848Z,4.30
2017-11-20T06:46:03.456Z,4.40
2017-11-20T06:48:30.998Z,4.40
2017-11-20T06:50:58.583Z,4.40
2017-11-20T06:53:26.155Z,4.30
2017-11-20T06:55:53.717Z,4.30
2017-11-20T06:58:21.257Z,4.40
2017-11-20T07:00:48.898Z,4.40
2017-11-20T07:03:16.444Z,4.40
2017-11-20T07:05:44.140Z,4.50
2017-11-20T07:08:11.839Z,4.50
2017-11-20T07:10:39.401Z,4.50
2017-11-20T07:13:06.999Z,4.50
2017-11-20T07:15:34.559Z,4.50
2017-11-20T07:18:02.133Z,4.50
2017-11-20T07:20:37.681Z,4.60
2017-11-20T07:23:05.298Z,4.60
2017-11-20T07:25:39.571Z,4.70
2017-11-20T07:28:07.146Z,4.70
2017-11-20T07:30:46.873Z,4.80
2017-11-20T07:33:14.455Z,4.80
2017-11-20T07:35:42.915Z,4.80
2017-11-20T07:38:18.269Z,4.80
2017-11-20T07:40:57.838Z,4.80
2017-11-20T07:43:25.425Z,4.70
2017-11-20T07:45:52.991Z,4.60
2017-11-20T07:48:20.548Z,4.60
2017-11-20T07:50:48.259Z,4.60
2017-11-20T07:53:15.867Z,4.60
2017-11-20T07:55:43.434Z,4.60
2017-11-20T07:58:10.994Z,4.50
2017-11-20T08:00:38.683Z,4.50
2017-11-20T08:03:07.028Z,4.50
2017-11-20T08:05:34.596Z,4.50
2017-11-20T08:08:02.166Z,4.50
2017-11-20T08:10:30.520Z,4.50
2017-11-20T08:12:58.296Z,4.50
2017-11-20T08:15:25.973Z,4.50
2017-11-20T08:17:53.552Z,4.50
2017-11-20T08:20:21.898Z,4.50
2017-11-20T08:22:49.446Z,4.50
2017-11-20T08:25:17.018Z,4.50
2017-11-20T08:27:44.589Z,4.50
2017-11-20T08:30:12.148Z,4.60
2017-11-20T08:32:40.486Z,4.50
2017-11-20T08:35:08.094Z,4.60
2017-11-20T08:37:35.619Z,4.60
2017-11-20T08:40:03.180Z,4.60
2017-11-20T08:42:30.771Z,4.70
2017-11-20T08:44:58.362Z,4.70
2017-11-20T08:47:26.699Z,4.80
2017-11-20T08:49:54.309Z,4.70
2017-11-20T08:52:22.658Z,4.80
2017-11-20T08:54:50.204Z,4.80
2017-11-20T08:57:17.769Z,4.80
2017-11-20T08:59:45.515Z,4.80
2017-11-20T09:02:13.059Z,4.80
2017-11-20T09:04:40.660Z,4.80
2017-11-20T09:07:08.229Z,4.80
2017-11-20T09:09:35.803Z,4.90
2017-11-20T09:12:03.364Z,4.90
2017-11-20T09:14:30.929Z,4.90
2017-11-20T09:16:58.523Z,5.00
2017-11-20T09:19:26.068Z,4.90
2017-11-20T09:21:54.438Z,4.90
2017-11-20T09:24:22.758Z,4.90
2017-11-20T09:26:50.349Z,4.90
2017-11-20T09:29:18.041Z,4.90
2017-11-20T09:31:45.618Z,4.90
2017-11-20T09:34:13.963Z,5.00
2017-11-20T09:36:41.587Z,5.00
2017-11-20T09:39:09.159Z,5.00
2017-11-20T09:41:36.735Z,5.10
2017-11-20T09:44:04.346Z,5.10
2017-11-20T09:46:32.757Z,5.20
2017-11-20T09:49:00.320Z,5.10
2017-11-20T09:51:27.868Z,5.20
2017-11-20T09:53:55.438Z,5.30
2017-11-20T09:56:23.027Z,5.30
2017-11-20T09:58:50.567Z,5.30
2017-11-20T10:01:18.134Z,5.40
2017-11-20T10:03:45.670Z,5.40
2017-11-20T10:06:13.238Z,5.40
2017-11-20T10:08:41.544Z,5.40
2017-11-20T10:11:09.107Z,5.40
2017-11-20T10:13:36.643Z,5.50
2017-11-20T10:16:04.206Z,5.50
2017-11-20T10:18:31.749Z,5.40
2017-11-20T10:21:00.087Z,5.40
2017-11-20T10:23:27.621Z,5.40
2017-11-20T10:25:55.161Z,5.40
2017-11-20T10:28:22.951Z,5.40
2017-11-20T10:30:50.524Z,5.50
2017-11-20T10:33:18.109Z,5.50
2017-11-20T10:35:45.669Z,5.50
2017-11-20T10:38:13.228Z,5.50
2017-11-20T10:40:40.808Z,5.40
2017-11-20T10:43:08.357Z,5.40
2017-11-20T10:45:36.669Z,5.40
2017-11-20T10:48:04.994Z,5.50
2017-11-20T10:50:32.556Z,5.50
2017-11-20T10:53:00.145Z,5.50
2017-11-20T10:55:27.679Z,5.60
2017-11-20T10:57:55.283Z,5.60
2017-11-20T11:00:23.745Z,5.60
2017-11-20T11:02:51.385Z,5.60
2017-11-20T11:05:18.935Z,5.50
2017-11-20T11:07:46.472Z,5.50
2017-11-20T11:10:14.076Z,5.50
2017-11-20T11:12:41.618Z,5.50
2017-11-20T11:15:09.195Z,5.60
2017-11-20T11:17:36.742Z,5.60
2017-11-20T11:20:04.331Z,5.60
2017-11-20T11:22:31.867Z,5.60
2017-11-20T11:24:59.478Z,5.60
2017-11-20T11:27:27.045Z,5.60
2017-11-20T11:29:55.388Z,5.60
2017-11-20T11:32:22.964Z,5.50
2017-11-20T11:34:50.534Z,5.50
2017-11-20T11:37:18.106Z,5.50
2017-11-20T11:39:45.759Z,5.50
2017-11-20T11:42:13.355Z,5.50
2017-11-20T11:44:40.919Z,5.50
2017-11-20T11:47:08.611Z,5.50
2017-11-20T11:49:36.163Z,5.50
2017-11-20T11:52:03.758Z,5.40
2017-11-20T11:54:31.307Z,5.40
2017-11-20T11:56:58.859Z,5.40
2017-11-20T11:59:26.422Z,5.40
2017-11-20T12:01:53.977Z,5.40
2017-11-20T12:04:21.583Z,5.40
2017-11-20T12:06:49.151Z,5.50
2017-11-20T12:09:16.711Z,5.60
2017-11-20T12:11:45.238Z,5.60
2017-11-20T12:14:12.817Z,5.60
2017-11-20T12:16:40.432Z,5.60
2017-11-20T12:19:08.796Z,5.60
2017-11-20T12:21:36.364Z,5.60
2017-11-20T12:24:03.920Z,5.60
2017-11-20T12:26:31.470Z,5.60
2017-11-20T12:28:59.039Z,5.60
2017-11-20T12:31:26.630Z,5.70
2017-11-20T12:33:54.398Z,5.70
2017-11-20T12:36:22.736Z,5.70
2017-11-20T12:38:50.310Z,5.70
2017-11-20T12:41:17.904Z,5.70
2017-11-20T12:43:46.256Z,5.70
2017-11-20T12:46:13.823Z,5.70
2017-11-20T12:48:41.390Z,5.80
2017-11-20T12:51:08.964Z,5.80
2017-11-20T12:53:37.295Z,5.80
2017-11-20T12:56:04.892Z,5.80
2017-11-20T12:58:33.242Z,5.90
2017-11-20T13:01:00.787Z,5.90
2017-11-20T13:03:28.453Z,6.00
2017-11-20T13:05:56.069Z,6.00
2017-11-20T13:08:24.395Z,6.00
2017-11-20T13:10:51.944Z,6.00
2017-11-20T13:13:19.538Z,6.00
2017-11-20T13:15:47.169Z,6.00
2017-11-20T13:18:14.740Z,6.00
2017-11-20T13:20:43.059Z,6.00
2017-11-20T13:23:11.455Z,6.00
2017-11-20T13:25:39.782Z,5.90
2017-11-20T13:28:07.348Z,5.90
2017-11-20T13:30:34.935Z,5.80
2017-11-20T13:33:02.478Z,5.80
2017-11-20T13:35:30.056Z,5.80
2017-11-20T13:37:57.644Z,5.80
2017-11-20T13:40:25.975Z,5.80
2017-11-20T13:42:54.036Z,5.80
2017-11-20T13:45:21.596Z,5.80
2017-11-20T13:47:49.212Z,5.70
2017-11-20T13:50:16.810Z,5.70
2017-11-20T13:52:44.358Z,5.70
2017-11-20T13:55:12.970Z,5.70
2017-11-20T13:57:40.634Z,5.70
2017-11-20T14:00:08.210Z,5.70
2017-11-20T14:02:35.770Z,5.70
2017-11-20T14:05:03.334Z,5.60
2017-11-20T14:07:30.926Z,5.60
2017-11-20T14:09:59.255Z,5.60
2017-11-20T14:12:26.816Z,5.60
2017-11-20T14:14:54.375Z,5.70
2017-11-20T14:17:21.972Z,5.70
2017-11-20T14:19:50.465Z,5.70
2017-11-20T14:22:18.057Z,5.70
2017-11-20T14:24:46.368Z,5.70
2017-11-20T14:27:13.938Z,5.70
2017-11-20T14:29:41.658Z,5.70
2017-11-20T14:32:09.992Z,5.70
2017-11-20T14:34:37.568Z,5.70
2017-11-20T14:37:05.125Z,5.70
2017-11-20T14:39:32.711Z,5.70
2017-11-20T14:42:01.071Z,5.70
2017-11-20T14:44:28.607Z,5.70
2017-11-20T14:46:57.977Z,5.70
2017-11-20T14:49:26.425Z,5.60
2017-11-20T14:52:01.959Z,5.60
2017-11-20T14:54:32.498Z,5.70
2017-11-20T14:57:00.052Z,5.70
2017-11-20T14:59:27.593Z,5.70
2017-11-20T15:01:55.945Z,5.70
2017-11-20T15:04:24.283Z,5.70
2017-11-20T15:06:51.826Z,5.70
2017-11-20T15:09:19.371Z,5.70
2017-11-20T15:11:46.931Z,5.70
2017-11-20T15:14:14.512Z,5.70
2017-11-20T15:16:42.156Z,5.70
2017-11-20T15:19:09.707Z,5.70
2017-11-20T15:21:37.298Z,5.70
2017-11-20T15:24:04.877Z,5.70
2017-11-20T15:26:32.437Z,5.70
2017-11-20T15:29:00.345Z,5.70
2017-11-20T15:31:28.227Z,5.70
2017-11-20T15:33:56.302Z,5.70
2017-11-20T15:36:24.103Z,5.70
2017-11-20T15:38:53.300Z,5.70
2017-11-20T15:41:20.952Z,5.70
2017-11-20T15:43:48.521Z,5.80
2017-11-20T15:46:16.163Z,5.80
2017-11-20T15:48:43.734Z,5.80
2017-11-20T15:51:11.319Z,5.80
2017-11-20T15:53:39.027Z,5.80
2017-11-20T15:56:07.481Z,5.80
2017-11-20T15:58:35.064Z,5.80
2017-11-20T16:01:03.480Z,5.90
2017-11-20T16:03:31.214Z,5.90
2017-11-20T16:05:59.619Z,5.90
2017-11-20T16:08:28.048Z,5.90
2017-11-20T16:10:55.658Z,5.90
2017-11-20T16:13:23.390Z,6.00
2017-11-20T16:15:51.051Z,5.90
2017-11-20T16:18:18.749Z,6.00
2017-11-20T16:20:47.139Z,6.00
2017-11-20T16:23:15.953Z,6.00
2017-11-20T16:25:45.144Z,6.00
2017-11-20T16:28:12.970Z,6.10
2017-11-20T16:30:40.535Z,6.10
2017-11-20T16:33:08.258Z,6.10
2017-11-20T16:35:36.632Z,6.20
2017-11-20T16:38:04.328Z,6.20
2017-11-20T16:40:31.936Z,6.20
2017-11-20T16:42:59.514Z,6.30
2017-11-20T16:45:27.071Z,6.30
2017-11-20T16:47:54.671Z,6.30
2017-11-20T16:50:23.605Z,6.30
2017-11-20T16:53:01.678Z,6.40
2017-11-20T16:55:30.185Z,6.40
2017-11-20T16:58:10.933Z,6.40
2017-11-20T17:00:48.535Z,6.50
2017-11-20T17:03:19.786Z,6.50
2017-11-20T17:05:47.384Z,6.60
2017-11-20T17:08:14.965Z,6.60
2017-11-20T17:10:43.366Z,6.70
2017-11-20T17:13:10.995Z,6.60
2017-11-20T17:15:39.334Z,6.80
2017-11-20T17:18:06.887Z,6.80
2017-11-20T17:20:34.477Z,6.90
2017-11-20T17:23:02.142Z,6.90
2017-11-20T17:25:29.712Z,7.00
2017-11-20T17:27:58.691Z,7.10
2017-11-20T17:30:26.294Z,7.10
2017-11-20T17:32:54.651Z,7.20
2017-11-20T17:35:22.261Z,7.20
2017-11-20T17:37:49.833Z,7.20
2017-11-20T17:40:17.428Z,7.20
2017-11-20T17:42:44.995Z,7.20
2017-11-20T17:45:13.353Z,7.30
2017-11-20T17:47:40.932Z,7.30
2017-11-20T17:50:08.612Z,7.40
2017-11-20T17:52:36.483Z,7.50
2017-11-20T17:55:04.070Z,7.60
2017-11-20T17:57:32.463Z,7.90
2017-11-20T18:00:00.021Z,7.90
2017-11-20T18:02:27.631Z,7.90
2017-11-20T18:04:55.211Z,8.00
2017-11-20T18:07:22.813Z,8.10
2017-11-20T18:09:50.408Z,8.10
2017-11-20T18:12:18.165Z,8.10
2017-11-20T18:14:45.798Z,8.20
2017-11-20T18:17:13.508Z,8.30
2017-11-20T18:19:41.063Z,8.40
2017-11-20T18:22:08.650Z,8.40
2017-11-20T18:24:36.232Z,8.40
2017-11-20T18:27:04.614Z,8.40
2017-11-20T18:29:32.944Z,8.40
2017-11-20T18:32:00.554Z,8.40
2017-11-20T18:34:28.903Z,8.50
2017-11-20T18:36:56.523Z,8.40
2017-11-20T18:39:24.091Z,8.40
2017-11-20T18:41:51.688Z,8.40
2017-11-20T18:44:19.263Z,8.50
2017-11-20T18:46:46.848Z,8.50
2017-11-20T18:49:15.207Z,8.50
2017-11-20T18:51:42.767Z,8.50
2017-11-20T18:54:11.343Z,8.50
2017-11-20T18:56:38.937Z,8.60
2017-11-20T18:59:07.262Z,8.60
2017-11-20T19:01:46.733Z,8.60
2017-11-20T19:04:25.999Z,8.60
2017-11-20T19:07:05.375Z,8.60
2017-11-20T19:09:34.234Z,8.60
2017-11-20T19:12:01.828Z,8.60
2017-11-20T19:14:29.427Z,8.60
2017-11-20T19:16:57.127Z,8.70
2017-11-20T19:19:24.688Z,8.80
2017-11-20T19:21:52.355Z,8.70
2017-11-20T19:24:31.555Z,8.80
2017-11-20T19:26:59.894Z,8.80
2017-11-20T19:29:27.501Z,8.80
2017-11-20T19:31:56.467Z,8.80
2017-11-20T19:34:25.080Z,8.80
2017-11-20T19:36:53.429Z,8.70
2017-11-20T19:39:21.103Z,8.70
2017-11-20T19:41:49.652Z,8.80
2017-11-20T19:44:17.223Z,8.80
2017-11-20T19:47:07.434Z,8.80
2017-11-20T19:49:35.806Z,8.80
2017-11-20T19:52:03.534Z,8.80
2017-11-20T19:54:31.519Z,8.80
2017-11-20T19:56:59.312Z,8.80
2017-11-20T19:59:26.938Z,8.80
2017-11-20T20:01:55.525Z,8.80
2017-11-20T20:04:24.057Z,8.80
2017-11-20T20:06:52.458Z,8.80
2017-11-20T20:09:20.233Z,8.80
2017-11-20T20:11:47.822Z,8.80
2017-11-20T20:14:37.493Z,8.90
2017-11-20T20:17:12.747Z,8.90
2017-11-20T20:19:40.419Z,8.80
2017-11-20T20:22:08.219Z,8.90
2017-11-20T20:24:36.767Z,8.80
2017-11-20T20:27:04.467Z,8.80
2017-11-20T20:29:36.900Z,8.80
2017-11-20T20:32:04.672Z,8.80
2017-11-20T20:34:32.307Z,8.80
2017-11-20T20:37:04.910Z,8.80
2017-11-20T20:39:33.296Z,8.80
2017-11-20T20:42:00.982Z,8.80
2017-11-20T20:44:28.609Z,8.80
2017-11-20T20:46:56.955Z,8.80
2017-11-20T20:49:24.555Z,8.80
2017-11-20T20:51:52.129Z,8.80
2017-11-20T20:54:20.489Z,8.80
2017-11-20T20:56:48.204Z,8.80
2017-11-20T20:59:15.951Z,8.90
2017-11-20T21:01:43.560Z,8.90
2017-11-20T21:04:11.166Z,8.90
2017-11-20T21:06:45.195Z,8.90
2017-11-20T21:09:12.827Z,9.00
2017-11-20T21:11:46.093Z,8.90
2017-11-20T21:14:13.756Z,8.90
2017-11-20T21:16:41.379Z,8.90
2017-11-20T21:19:09.059Z,9.00
2017-11-20T21:21:36.649Z,9.00
2017-11-20T21:24:04.214Z,9.10
2017-11-20T21:26:31.856Z,9.10
2017-11-20T21:28:59.496Z,9.10
2017-11-20T21:31:27.162Z,9.10
2017-11-20T21:33:54.787Z,9.20
2017-11-20T21:36:22.366Z,9.20
2017-11-20T21:38:50.692Z,9.20
2017-11-20T21:41:18.398Z,9.20
2017-11-20T21:43:46.740Z,9.30
2017-11-20T21:46:14.346Z,9.20
2017-11-20T21:48:42.702Z,9.40
2017-11-20T21:51:11.064Z,9.40
2017-11-20T21:53:39.429Z,9.40
2017-11-20T21:56:07.004Z,9.40
2017-11-20T21:58:34.572Z,9.40
2017-11-20T22:01:02.934Z,9.40
2017-11-20T22:03:30.495Z,9.40
2017-11-20T22:05:58.871Z,9.40
2017-11-20T22:08:27.205Z,9.50
2017-11-20T22:10:54.796Z,9.40
2017-11-20T22:13:28.257Z,9.50
2017-11-20T22:15:55.907Z,9.50
2017-11-20T22:18:23.475Z,9.50
2017-11-20T22:20:51.076Z,9.50
2017-11-20T22:23:18.835Z,9.50
2017-11-20T22:25:46.406Z,9.50
2017-11-20T22:28:13.991Z,9.60
2017-11-20T22:30:42.376Z,9.60
2017-11-20T22:33:10.789Z,9.60
2017-11-20T22:35:38.375Z,9.60
2017-11-20T22:38:05.949Z,9.60
2017-11-20T22:40:33.528Z,9.60
2017-11-20T22:43:01.108Z,9.60
2017-11-20T22:45:28.685Z,9.60
2017-11-20T22:47:56.262Z,9.60
2017-11-20T22:50:23.934Z,9.60
2017-11-20T22:53:01.431Z,9.60
2017-11-20T22:55:29.395Z,9.60
2017-11-20T22:57:57.100Z,9.60
2017-11-20T23:00:34.559Z,9.60
2017-11-20T23:03:02.139Z,9.60
2017-11-20T23:05:29.876Z,9.60
2017-11-20T23:08:07.832Z,9.70
2017-11-20T23:10:35.665Z,9.60
2017-11-20T23:13:04.005Z,9.60
2017-11-20T23:15:31.594Z,9.60
2017-11-20T23:17:59.723Z,9.60
2017-11-20T23:20:27.465Z,9.60
2017-11-20T23:22:55.723Z,9.60
2017-11-20T23:25:27.941Z,9.60
2017-11-20T23:27:55.530Z,9.60
2017-11-20T23:30:23.127Z,9.60
2017-11-20T23:32:51.479Z,9.60
2017-11-20T23:35:19.043Z,9.60
2017-11-20T23:37:46.630Z,9.70
2017-11-20T23:40:14.968Z,9.70
2017-11-20T23:42:42.550Z,9.70
2017-11-20T23:45:11.203Z,9.70
2017-11-20T23:47:38.796Z,9.60
2017-11-20T23:50:06.355Z,9.70
2017-11-20T23:52:33.957Z,9.70
2017-11-20T23:55:02.299Z,9.70
2017-11-20T23:57:29.870Z,9.70
2017-11-20T23:59:57.490Z,9.70
